Estación Meteorológica Peña el Pijo (Robertgarden) [ 12/06/23 10:49:41 CET ]

Fecha Hora Presion(HPa) Temp (°C) Humedad % Rocio (°C) Viento ( m/s) Direccion Lluvia 1Hora(mm) Lluvia 24H(mm) LLuvia Total(mm)
2008-May-04 01:05:15 1023.000 8.7 63 2.0         80.78
2008-May-04 02:05:17 1022.700 7.9 68 2.4         80.78
2008-May-04 03:05:18 1022.200 6.8 72 2.1         80.78
2008-May-04 04:05:14 1022.100 6.4 75 2.3         80.78
2008-May-04 05:05:14 1021.700 6.8 75 2.7         80.78
2008-May-04 06:05:13 1021.500 8.2 73 3.6         80.78
2008-May-04 07:05:14 1021.700 6.5 77 2.7         80.78
2008-May-04 08:05:16 1021.800 11.6 74 7.1         80.78
2008-May-04 09:05:18 1021.800 21.6 43 8.4         80.78
2008-May-04 10:05:16 1021.600 26.8 29 7.2         80.78
2008-May-04 11:05:13 1021.600 30.3 23 6.7 0.7 NNE     80.78
2008-May-04 12:05:17 1021.300 32.1 21 7.0 0.8 N     80.78
2008-May-04 13:05:17 1021.000 31.2 21 6.2 0.4 SE     80.78
2008-May-04 14:05:16 1020.500 32.3 20 6.5         80.78
2008-May-04 15:05:12 1020.200 32.5 19 5.7 2.4 N     80.78
2008-May-04 16:05:21 1019.900 25.8 24 3.5         80.78
2008-May-04 17:05:13 1020.700 18.3 53 8.5 1.4 SW     80.78
2008-May-04 18:05:17 1021.100 16.1 70 10.7     0.51 0.51 81.30
2008-May-04 19:05:25 1020.400 22.3 47 10.4       0.51 81.30
2008-May-04 20:05:17 1020.600 18.3 60 10.4       0.51 81.30
2008-May-04 21:05:21 1021.200 15.5 73 10.7       0.51 81.30
2008-May-04 22:05:22 1021.800 13.6 77 9.6       0.51 81.30
2008-May-04 23:05:14 1022.500 12.5 79 8.9       0.51 81.30

Temperatura Máxima:32°    Temperatura Mínima:
Presión Máxima:1023.000 Hpa    Presión Mínima:1019.900 Hpa


Volver